sensor_id;sensor_type;location;lat;lon;timestamp;P1;durP1;ratioP1;P2;durP2;ratioP2
52015;SDS011;38032;53.326;6.472;2023-10-09T00:01:06;8.55;;;4.20;;
52015;SDS011;38032;53.326;6.472;2023-10-09T00:03:42;9.48;;;4.32;;
52015;SDS011;38032;53.326;6.472;2023-10-09T00:06:28;6.90;;;4.40;;
52015;SDS011;38032;53.326;6.472;2023-10-09T00:09:02;8.23;;;4.55;;
52015;SDS011;38032;53.326;6.472;2023-10-09T00:11:50;12.90;;;4.80;;
52015;SDS011;38032;53.326;6.472;2023-10-09T00:14:25;8.70;;;4.80;;
52015;SDS011;38032;53.326;6.472;2023-10-09T00:16:59;8.35;;;4.70;;
52015;SDS011;38032;53.326;6.472;2023-10-09T00:19:46;8.75;;;4.60;;
52015;SDS011;38032;53.326;6.472;2023-10-09T00:22:24;7.93;;;4.88;;
52015;SDS011;38032;53.326;6.472;2023-10-09T00:24:51;13.07;;;5.28;;
52015;SDS011;38032;53.326;6.472;2023-10-09T00:27:41;13.20;;;5.03;;
52015;SDS011;38032;53.326;6.472;2023-10-09T00:30:15;12.48;;;4.95;;
52015;SDS011;38032;53.326;6.472;2023-10-09T00:32:43;10.73;;;5.20;;
52015;SDS011;38032;53.326;6.472;2023-10-09T00:35:26;10.90;;;5.10;;
52015;SDS011;38032;53.326;6.472;2023-10-09T00:38:04;11.07;;;5.82;;
52015;SDS011;38032;53.326;6.472;2023-10-09T00:40:49;9.75;;;5.38;;
52015;SDS011;38032;53.326;6.472;2023-10-09T00:43:28;12.68;;;5.82;;
52015;SDS011;38032;53.326;6.472;2023-10-09T00:45:55;11.18;;;5.95;;
52015;SDS011;38032;53.326;6.472;2023-10-09T00:48:35;11.23;;;4.97;;
52015;SDS011;38032;53.326;6.472;2023-10-09T00:51:09;11.50;;;5.78;;
52015;SDS011;38032;53.326;6.472;2023-10-09T00:53:47;11.05;;;6.45;;
52015;SDS011;38032;53.326;6.472;2023-10-09T00:56:19;14.05;;;6.65;;
52015;SDS011;38032;53.326;6.472;2023-10-09T00:58:57;12.43;;;6.90;;
52015;SDS011;38032;53.326;6.472;2023-10-09T01:01:40;14.75;;;7.18;;
52015;SDS011;38032;53.326;6.472;2023-10-09T01:04:21;13.73;;;6.95;;
52015;SDS011;38032;53.326;6.472;2023-10-09T01:06:50;17.48;;;7.70;;
52015;SDS011;38032;53.326;6.472;2023-10-09T01:09:33;15.82;;;7.85;;
52015;SDS011;38032;53.326;6.472;2023-10-09T01:12:08;14.55;;;7.60;;
52015;SDS011;38032;53.326;6.472;2023-10-09T01:14:45;17.15;;;8.50;;
52015;SDS011;38032;53.326;6.472;2023-10-09T01:17:17;16.60;;;8.20;;
52015;SDS011;38032;53.326;6.472;2023-10-09T01:19:55;16.77;;;8.40;;
52015;SDS011;38032;53.326;6.472;2023-10-09T01:22:21;19.70;;;8.02;;
52015;SDS011;38032;53.326;6.472;2023-10-09T01:24:47;13.57;;;8.25;;
52015;SDS011;38032;53.326;6.472;2023-10-09T01:27:15;18.65;;;9.13;;
52015;SDS011;38032;53.326;6.472;2023-10-09T01:29:41;15.75;;;8.50;;
52015;SDS011;38032;53.326;6.472;2023-10-09T01:32:08;15.65;;;8.25;;
52015;SDS011;38032;53.326;6.472;2023-10-09T01:34:42;15.03;;;8.93;;
52015;SDS011;38032;53.326;6.472;2023-10-09T01:37:13;22.45;;;9.70;;
52015;SDS011;38032;53.326;6.472;2023-10-09T01:39:57;20.05;;;9.50;;
52015;SDS011;38032;53.326;6.472;2023-10-09T01:42:24;19.77;;;9.57;;
52015;SDS011;38032;53.326;6.472;2023-10-09T01:45:02;17.98;;;9.80;;
52015;SDS011;38032;53.326;6.472;2023-10-09T01:47:52;19.55;;;9.75;;
52015;SDS011;38032;53.326;6.472;2023-10-09T01:50:21;19.48;;;10.27;;
52015;SDS011;38032;53.326;6.472;2023-10-09T01:52:52;19.17;;;9.80;;
52015;SDS011;38032;53.326;6.472;2023-10-09T01:55:18;22.48;;;10.32;;
52015;SDS011;38032;53.326;6.472;2023-10-09T01:58:09;19.02;;;10.60;;
52015;SDS011;38032;53.326;6.472;2023-10-09T02:00:49;23.85;;;10.65;;
52015;SDS011;38032;53.326;6.472;2023-10-09T02:03:23;23.17;;;10.93;;
52015;SDS011;38032;53.326;6.472;2023-10-09T02:05:49;21.58;;;11.18;;
52015;SDS011;38032;53.326;6.472;2023-10-09T02:08:19;23.48;;;12.13;;
52015;SDS011;38032;53.326;6.472;2023-10-09T02:10:51;22.15;;;11.25;;
52015;SDS011;38032;53.326;6.472;2023-10-09T02:13:21;29.05;;;12.45;;
52015;SDS011;38032;53.326;6.472;2023-10-09T02:15:59;21.65;;;11.68;;
52015;SDS011;38032;53.326;6.472;2023-10-09T02:18:42;25.98;;;12.65;;
52015;SDS011;38032;53.326;6.472;2023-10-09T02:21:24;27.15;;;13.00;;
52015;SDS011;38032;53.326;6.472;2023-10-09T02:24:00;25.70;;;11.43;;
52015;SDS011;38032;53.326;6.472;2023-10-09T02:26:31;26.90;;;13.25;;
52015;SDS011;38032;53.326;6.472;2023-10-09T02:29:03;32.13;;;14.25;;
52015;SDS011;38032;53.326;6.472;2023-10-09T02:31:34;30.70;;;14.07;;
52015;SDS011;38032;53.326;6.472;2023-10-09T02:34:06;28.60;;;14.32;;
52015;SDS011;38032;53.326;6.472;2023-10-09T02:36:33;28.55;;;14.13;;
52015;SDS011;38032;53.326;6.472;2023-10-09T02:39:15;27.95;;;15.02;;
52015;SDS011;38032;53.326;6.472;2023-10-09T02:41:54;36.55;;;15.40;;
52015;SDS011;38032;53.326;6.472;2023-10-09T02:44:27;32.17;;;14.57;;
52015;SDS011;38032;53.326;6.472;2023-10-09T02:46:57;30.45;;;14.98;;
52015;SDS011;38032;53.326;6.472;2023-10-09T02:49:24;27.08;;;14.90;;
52015;SDS011;38032;53.326;6.472;2023-10-09T02:51:51;31.15;;;15.88;;
52015;SDS011;38032;53.326;6.472;2023-10-09T02:54:20;33.55;;;15.48;;
52015;SDS011;38032;53.326;6.472;2023-10-09T02:56:49;31.70;;;17.73;;
52015;SDS011;38032;53.326;6.472;2023-10-09T02:59:31;35.15;;;18.10;;
52015;SDS011;38032;53.326;6.472;2023-10-09T03:01:57;36.25;;;18.48;;
52015;SDS011;38032;53.326;6.472;2023-10-09T03:04:28;35.58;;;17.55;;
52015;SDS011;38032;53.326;6.472;2023-10-09T03:06:57;35.63;;;18.38;;
52015;SDS011;38032;53.326;6.472;2023-10-09T03:09:23;39.13;;;19.77;;
52015;SDS011;38032;53.326;6.472;2023-10-09T03:11:53;36.80;;;19.95;;
52015;SDS011;38032;53.326;6.472;2023-10-09T03:14:21;38.72;;;19.67;;
52015;SDS011;38032;53.326;6.472;2023-10-09T03:16:51;45.22;;;22.23;;
52015;SDS011;38032;53.326;6.472;2023-10-09T03:19:18;38.67;;;20.08;;
52015;SDS011;38032;53.326;6.472;2023-10-09T03:21:44;43.67;;;22.05;;
52015;SDS011;38032;53.326;6.472;2023-10-09T03:24:11;39.33;;;22.05;;
52015;SDS011;38032;53.326;6.472;2023-10-09T03:26:37;45.17;;;22.83;;
52015;SDS011;38032;53.326;6.472;2023-10-09T03:29:03;39.67;;;22.05;;
52015;SDS011;38032;53.326;6.472;2023-10-09T03:31:35;42.28;;;22.02;;
52015;SDS011;38032;53.326;6.472;2023-10-09T03:34:02;43.67;;;23.55;;
52015;SDS011;38032;53.326;6.472;2023-10-09T03:36:33;42.00;;;23.42;;
52015;SDS011;38032;53.326;6.472;2023-10-09T03:39:06;48.78;;;23.83;;
52015;SDS011;38032;53.326;6.472;2023-10-09T03:41:51;42.25;;;22.08;;
52015;SDS011;38032;53.326;6.472;2023-10-09T03:44:19;40.67;;;21.80;;
52015;SDS011;38032;53.326;6.472;2023-10-09T03:46:46;36.80;;;21.75;;
52015;SDS011;38032;53.326;6.472;2023-10-09T03:49:12;42.00;;;22.73;;
52015;SDS011;38032;53.326;6.472;2023-10-09T03:51:39;40.00;;;21.65;;
52015;SDS011;38032;53.326;6.472;2023-10-09T03:54:05;39.08;;;21.75;;
52015;SDS011;38032;53.326;6.472;2023-10-09T03:56:34;46.03;;;23.20;;
52015;SDS011;38032;53.326;6.472;2023-10-09T03:59:00;41.63;;;22.33;;
52015;SDS011;38032;53.326;6.472;2023-10-09T04:01:29;42.72;;;22.27;;
52015;SDS011;38032;53.326;6.472;2023-10-09T04:03:56;40.58;;;21.67;;
52015;SDS011;38032;53.326;6.472;2023-10-09T04:06:28;37.50;;;21.77;;
52015;SDS011;38032;53.326;6.472;2023-10-09T04:08:57;39.45;;;22.45;;
52015;SDS011;38032;53.326;6.472;2023-10-09T04:11:47;41.25;;;22.35;;
52015;SDS011;38032;53.326;6.472;2023-10-09T04:14:35;42.60;;;20.88;;
52015;SDS011;38032;53.326;6.472;2023-10-09T04:17:01;40.47;;;21.27;;
52015;SDS011;38032;53.326;6.472;2023-10-09T04:19:46;42.92;;;21.77;;
52015;SDS011;38032;53.326;6.472;2023-10-09T04:22:38;37.60;;;20.08;;
52015;SDS011;38032;53.326;6.472;2023-10-09T04:25:07;33.35;;;19.25;;
52015;SDS011;38032;53.326;6.472;2023-10-09T04:27:40;36.85;;;20.40;;
52015;SDS011;38032;53.326;6.472;2023-10-09T04:30:06;44.42;;;19.40;;
52015;SDS011;38032;53.326;6.472;2023-10-09T04:32:33;35.28;;;19.10;;
52015;SDS011;38032;53.326;6.472;2023-10-09T04:35:00;30.17;;;17.70;;
52015;SDS011;38032;53.326;6.472;2023-10-09T04:37:45;35.10;;;18.88;;
52015;SDS011;38032;53.326;6.472;2023-10-09T04:40:17;34.10;;;18.38;;
52015;SDS011;38032;53.326;6.472;2023-10-09T04:43:02;33.65;;;18.75;;
52015;SDS011;38032;53.326;6.472;2023-10-09T04:45:35;32.05;;;17.30;;
52015;SDS011;38032;53.326;6.472;2023-10-09T04:48:08;33.75;;;17.42;;
52015;SDS011;38032;53.326;6.472;2023-10-09T04:50:35;29.52;;;17.20;;
52015;SDS011;38032;53.326;6.472;2023-10-09T04:53:01;34.97;;;18.40;;
52015;SDS011;38032;53.326;6.472;2023-10-09T04:55:50;27.85;;;14.20;;
52015;SDS011;38032;53.326;6.472;2023-10-09T04:58:21;29.75;;;17.05;;
52015;SDS011;38032;53.326;6.472;2023-10-09T05:00:51;28.75;;;15.80;;
52015;SDS011;38032;53.326;6.472;2023-10-09T05:03:23;23.40;;;14.18;;
52015;SDS011;38032;53.326;6.472;2023-10-09T05:06:10;29.80;;;14.68;;
52015;SDS011;38032;53.326;6.472;2023-10-09T05:08:47;25.05;;;14.23;;
52015;SDS011;38032;53.326;6.472;2023-10-09T05:11:14;32.63;;;14.95;;
52015;SDS011;38032;53.326;6.472;2023-10-09T05:13:59;28.17;;;15.13;;
52015;SDS011;38032;53.326;6.472;2023-10-09T05:16:38;23.80;;;13.70;;
52015;SDS011;38032;53.326;6.472;2023-10-09T05:19:19;27.17;;;14.07;;
52015;SDS011;38032;53.326;6.472;2023-10-09T05:22:15;22.27;;;12.82;;
52015;SDS011;38032;53.326;6.472;2023-10-09T05:25:16;21.67;;;12.32;;
52015;SDS011;38032;53.326;6.472;2023-10-09T05:28:02;27.02;;;12.85;;
52015;SDS011;38032;53.326;6.472;2023-10-09T05:30:48;20.98;;;11.43;;
52015;SDS011;38032;53.326;6.472;2023-10-09T05:33:20;17.27;;;9.35;;
52015;SDS011;38032;53.326;6.472;2023-10-09T05:35:58;23.63;;;10.48;;
52015;SDS011;38032;53.326;6.472;2023-10-09T05:38:44;17.98;;;10.30;;
52015;SDS011;38032;53.326;6.472;2023-10-09T05:41:12;19.83;;;10.25;;
52015;SDS011;38032;53.326;6.472;2023-10-09T05:43:56;19.30;;;9.85;;
52015;SDS011;38032;53.326;6.472;2023-10-09T05:49:26;19.38;;;9.65;;
52015;SDS011;38032;53.326;6.472;2023-10-09T05:52:11;21.20;;;9.68;;
52015;SDS011;38032;53.326;6.472;2023-10-09T05:55:06;20.17;;;9.55;;
52015;SDS011;38032;53.326;6.472;2023-10-09T06:00:36;17.90;;;9.23;;
52015;SDS011;38032;53.326;6.472;2023-10-09T06:03:20;20.80;;;10.52;;
52015;SDS011;38032;53.326;6.472;2023-10-09T06:08:33;23.98;;;9.43;;
52015;SDS011;38032;53.326;6.472;2023-10-09T06:11:08;17.83;;;8.50;;
52015;SDS011;38032;53.326;6.472;2023-10-09T06:13:57;25.45;;;9.88;;
52015;SDS011;38032;53.326;6.472;2023-10-09T06:16:38;21.58;;;9.98;;
52015;SDS011;38032;53.326;6.472;2023-10-09T06:19:25;19.17;;;9.38;;
52015;SDS011;38032;53.326;6.472;2023-10-09T06:21:56;20.35;;;9.13;;
52015;SDS011;38032;53.326;6.472;2023-10-09T06:24:42;20.73;;;8.98;;
52015;SDS011;38032;53.326;6.472;2023-10-09T06:27:20;19.45;;;9.23;;
52015;SDS011;38032;53.326;6.472;2023-10-09T06:29:56;16.08;;;8.60;;
52015;SDS011;38032;53.326;6.472;2023-10-09T06:32:42;19.08;;;8.32;;
52015;SDS011;38032;53.326;6.472;2023-10-09T06:35:20;19.08;;;8.95;;
52015;SDS011;38032;53.326;6.472;2023-10-09T06:37:55;16.23;;;7.93;;
52015;SDS011;38032;53.326;6.472;2023-10-09T06:40:46;17.52;;;8.60;;
52015;SDS011;38032;53.326;6.472;2023-10-09T06:43:31;19.38;;;8.60;;
52015;SDS011;38032;53.326;6.472;2023-10-09T06:46:01;20.88;;;9.85;;
52015;SDS011;38032;53.326;6.472;2023-10-09T06:48:46;21.50;;;8.75;;
52015;SDS011;38032;53.326;6.472;2023-10-09T06:51:21;18.27;;;9.07;;
52015;SDS011;38032;53.326;6.472;2023-10-09T06:53:50;17.70;;;8.40;;
52015;SDS011;38032;53.326;6.472;2023-10-09T06:56:23;22.48;;;9.50;;
52015;SDS011;38032;53.326;6.472;2023-10-09T06:58:55;22.83;;;9.50;;
52015;SDS011;38032;53.326;6.472;2023-10-09T07:01:40;17.98;;;8.52;;
52015;SDS011;38032;53.326;6.472;2023-10-09T07:04:12;24.63;;;9.18;;
52015;SDS011;38032;53.326;6.472;2023-10-09T07:06:48;17.27;;;8.10;;
52015;SDS011;38032;53.326;6.472;2023-10-09T07:09:16;22.98;;;8.65;;
52015;SDS011;38032;53.326;6.472;2023-10-09T07:11:46;18.27;;;8.25;;
52015;SDS011;38032;53.326;6.472;2023-10-09T07:14:21;22.35;;;8.68;;
52015;SDS011;38032;53.326;6.472;2023-10-09T07:19:26;17.80;;;8.57;;
52015;SDS011;38032;53.326;6.472;2023-10-09T07:21:59;19.83;;;8.20;;
52015;SDS011;38032;53.326;6.472;2023-10-09T07:24:29;18.70;;;8.45;;
52015;SDS011;38032;53.326;6.472;2023-10-09T07:27:18;19.55;;;8.30;;
52015;SDS011;38032;53.326;6.472;2023-10-09T07:30:07;20.75;;;8.50;;
52015;SDS011;38032;53.326;6.472;2023-10-09T07:32:55;16.38;;;8.80;;
52015;SDS011;38032;53.326;6.472;2023-10-09T07:35:31;19.85;;;8.63;;
52015;SDS011;38032;53.326;6.472;2023-10-09T07:38:09;18.88;;;8.55;;
52015;SDS011;38032;53.326;6.472;2023-10-09T07:40:46;22.88;;;8.80;;
52015;SDS011;38032;53.326;6.472;2023-10-09T07:43:42;18.95;;;9.00;;
52015;SDS011;38032;53.326;6.472;2023-10-09T07:46:11;19.00;;;8.68;;
52015;SDS011;38032;53.326;6.472;2023-10-09T07:48:57;18.42;;;8.77;;
52015;SDS011;38032;53.326;6.472;2023-10-09T07:51:48;17.05;;;9.00;;
52015;SDS011;38032;53.326;6.472;2023-10-09T07:54:13;17.75;;;8.68;;
52015;SDS011;38032;53.326;6.472;2023-10-09T07:56:40;18.05;;;7.90;;
52015;SDS011;38032;53.326;6.472;2023-10-09T07:59:09;21.85;;;8.20;;
52015;SDS011;38032;53.326;6.472;2023-10-09T08:01:43;19.60;;;8.93;;
52015;SDS011;38032;53.326;6.472;2023-10-09T08:04:39;18.48;;;7.75;;
52015;SDS011;38032;53.326;6.472;2023-10-09T08:07:14;20.83;;;8.25;;
52015;SDS011;38032;53.326;6.472;2023-10-09T08:10:14;21.95;;;8.40;;
52015;SDS011;38032;53.326;6.472;2023-10-09T08:12:42;17.30;;;8.38;;
52015;SDS011;38032;53.326;6.472;2023-10-09T08:15:15;21.70;;;8.65;;
52015;SDS011;38032;53.326;6.472;2023-10-09T08:17:48;21.85;;;8.35;;
52015;SDS011;38032;53.326;6.472;2023-10-09T08:20:25;22.38;;;8.60;;
52015;SDS011;38032;53.326;6.472;2023-10-09T08:22:52;18.77;;;8.43;;
52015;SDS011;38032;53.326;6.472;2023-10-09T08:25:24;21.98;;;9.02;;
52015;SDS011;38032;53.326;6.472;2023-10-09T08:28:01;22.33;;;8.75;;
52015;SDS011;38032;53.326;6.472;2023-10-09T08:30:40;19.90;;;8.05;;
52015;SDS011;38032;53.326;6.472;2023-10-09T08:33:19;19.20;;;8.02;;
52015;SDS011;38032;53.326;6.472;2023-10-09T08:36:06;17.85;;;7.70;;
52015;SDS011;38032;53.326;6.472;2023-10-09T08:38:33;17.67;;;8.43;;
52015;SDS011;38032;53.326;6.472;2023-10-09T08:41:06;17.38;;;7.38;;
52015;SDS011;38032;53.326;6.472;2023-10-09T08:43:52;19.00;;;8.07;;
52015;SDS011;38032;53.326;6.472;2023-10-09T08:46:19;16.30;;;7.55;;
52015;SDS011;38032;53.326;6.472;2023-10-09T08:48:47;24.25;;;7.57;;
52015;SDS011;38032;53.326;6.472;2023-10-09T08:51:13;20.10;;;7.65;;
52015;SDS011;38032;53.326;6.472;2023-10-09T08:53:41;19.45;;;8.07;;
52015;SDS011;38032;53.326;6.472;2023-10-09T08:56:11;21.25;;;8.00;;
52015;SDS011;38032;53.326;6.472;2023-10-09T08:58:40;17.52;;;7.18;;
52015;SDS011;38032;53.326;6.472;2023-10-09T09:01:06;21.13;;;8.13;;
52015;SDS011;38032;53.326;6.472;2023-10-09T09:03:39;22.27;;;7.80;;
52015;SDS011;38032;53.326;6.472;2023-10-09T09:06:09;18.23;;;8.35;;
52015;SDS011;38032;53.326;6.472;2023-10-09T09:08:35;21.67;;;7.82;;
52015;SDS011;38032;53.326;6.472;2023-10-09T09:11:07;22.25;;;8.18;;
52015;SDS011;38032;53.326;6.472;2023-10-09T09:13:40;19.65;;;6.85;;
52015;SDS011;38032;53.326;6.472;2023-10-09T09:16:14;18.80;;;7.85;;
52015;SDS011;38032;53.326;6.472;2023-10-09T09:18:55;20.05;;;7.63;;
52015;SDS011;38032;53.326;6.472;2023-10-09T09:21:43;20.70;;;7.03;;
52015;SDS011;38032;53.326;6.472;2023-10-09T09:24:20;18.27;;;7.60;;
52015;SDS011;38032;53.326;6.472;2023-10-09T09:26:56;18.85;;;6.90;;
52015;SDS011;38032;53.326;6.472;2023-10-09T09:32:06;17.40;;;7.10;;
52015;SDS011;38032;53.326;6.472;2023-10-09T09:34:46;22.90;;;7.75;;
52015;SDS011;38032;53.326;6.472;2023-10-09T09:37:18;15.73;;;6.75;;
52015;SDS011;38032;53.326;6.472;2023-10-09T09:39:45;23.73;;;7.65;;
52015;SDS011;38032;53.326;6.472;2023-10-09T09:42:15;21.13;;;7.60;;
52015;SDS011;38032;53.326;6.472;2023-10-09T09:44:42;17.80;;;6.68;;
52015;SDS011;38032;53.326;6.472;2023-10-09T09:47:13;18.50;;;6.50;;
52015;SDS011;38032;53.326;6.472;2023-10-09T09:49:49;16.70;;;6.43;;
52015;SDS011;38032;53.326;6.472;2023-10-09T09:52:18;18.00;;;7.35;;
52015;SDS011;38032;53.326;6.472;2023-10-09T09:54:44;14.38;;;6.13;;
52015;SDS011;38032;53.326;6.472;2023-10-09T09:57:14;19.05;;;6.72;;
52015;SDS011;38032;53.326;6.472;2023-10-09T09:59:51;18.30;;;6.78;;
52015;SDS011;38032;53.326;6.472;2023-10-09T10:02:40;16.52;;;6.90;;
52015;SDS011;38032;53.326;6.472;2023-10-09T10:05:06;18.23;;;6.85;;
52015;SDS011;38032;53.326;6.472;2023-10-09T10:07:37;19.42;;;6.80;;
52015;SDS011;38032;53.326;6.472;2023-10-09T10:13:04;13.80;;;6.00;;
52015;SDS011;38032;53.326;6.472;2023-10-09T10:18:31;16.33;;;5.72;;
52015;SDS011;38032;53.326;6.472;2023-10-09T10:24:01;13.00;;;5.95;;
52015;SDS011;38032;53.326;6.472;2023-10-09T10:26:37;15.20;;;5.93;;
52015;SDS011;38032;53.326;6.472;2023-10-09T10:32:00;20.48;;;6.43;;
52015;SDS011;38032;53.326;6.472;2023-10-09T10:40:23;13.27;;;5.80;;
52015;SDS011;38032;53.326;6.472;2023-10-09T10:43:14;16.42;;;5.43;;
52015;SDS011;38032;53.326;6.472;2023-10-09T10:49:24;12.18;;;5.07;;
52015;SDS011;38032;53.326;6.472;2023-10-09T10:52:01;12.93;;;5.30;;
52015;SDS011;38032;53.326;6.472;2023-10-09T10:54:42;16.73;;;5.25;;
52015;SDS011;38032;53.326;6.472;2023-10-09T10:57:15;13.90;;;5.63;;
52015;SDS011;38032;53.326;6.472;2023-10-09T10:59:45;11.73;;;4.63;;
52015;SDS011;38032;53.326;6.472;2023-10-09T11:02:11;12.65;;;5.03;;
52015;SDS011;38032;53.326;6.472;2023-10-09T11:04:47;10.80;;;4.57;;
52015;SDS011;38032;53.326;6.472;2023-10-09T11:07:39;12.38;;;4.25;;
52015;SDS011;38032;53.326;6.472;2023-10-09T11:10:07;12.93;;;4.68;;
52015;SDS011;38032;53.326;6.472;2023-10-09T11:15:14;10.07;;;4.55;;
52015;SDS011;38032;53.326;6.472;2023-10-09T11:18:03;11.05;;;4.35;;
52015;SDS011;38032;53.326;6.472;2023-10-09T11:20:36;15.32;;;4.78;;
52015;SDS011;38032;53.326;6.472;2023-10-09T11:23:04;13.25;;;4.35;;
52015;SDS011;38032;53.326;6.472;2023-10-09T11:25:32;11.75;;;4.88;;
52015;SDS011;38032;53.326;6.472;2023-10-09T11:27:58;12.10;;;4.93;;
52015;SDS011;38032;53.326;6.472;2023-10-09T11:33:24;9.23;;;4.20;;
52015;SDS011;38032;53.326;6.472;2023-10-09T11:35:55;11.18;;;4.28;;
52015;SDS011;38032;53.326;6.472;2023-10-09T11:38:25;7.93;;;4.28;;
52015;SDS011;38032;53.326;6.472;2023-10-09T11:41:11;11.20;;;4.18;;
52015;SDS011;38032;53.326;6.472;2023-10-09T11:43:50;9.70;;;3.78;;
52015;SDS011;38032;53.326;6.472;2023-10-09T11:46:18;10.48;;;4.10;;
52015;SDS011;38032;53.326;6.472;2023-10-09T11:49:04;9.73;;;4.13;;
52015;SDS011;38032;53.326;6.472;2023-10-09T11:51:46;11.65;;;3.83;;
52015;SDS011;38032;53.326;6.472;2023-10-09T11:54:39;10.30;;;4.15;;
52015;SDS011;38032;53.326;6.472;2023-10-09T11:57:06;7.85;;;4.07;;
52015;SDS011;38032;53.326;6.472;2023-10-09T11:59:32;7.43;;;3.38;;
52015;SDS011;38032;53.326;6.472;2023-10-09T12:02:08;10.20;;;4.00;;
52015;SDS011;38032;53.326;6.472;2023-10-09T12:04:42;14.35;;;3.90;;
52015;SDS011;38032;53.326;6.472;2023-10-09T12:07:09;10.50;;;3.92;;
52015;SDS011;38032;53.326;6.472;2023-10-09T12:09:38;12.32;;;4.25;;
52015;SDS011;38032;53.326;6.472;2023-10-09T12:12:05;11.25;;;3.80;;
52015;SDS011;38032;53.326;6.472;2023-10-09T12:14:34;14.20;;;4.55;;
52015;SDS011;38032;53.326;6.472;2023-10-09T12:17:03;10.55;;;3.97;;
52015;SDS011;38032;53.326;6.472;2023-10-09T12:19:31;9.85;;;4.18;;
52015;SDS011;38032;53.326;6.472;2023-10-09T12:22:00;11.85;;;4.43;;
52015;SDS011;38032;53.326;6.472;2023-10-09T12:24:29;13.13;;;4.10;;
52015;SDS011;38032;53.326;6.472;2023-10-09T12:26:56;13.73;;;4.28;;
52015;SDS011;38032;53.326;6.472;2023-10-09T12:29:22;10.25;;;4.60;;
52015;SDS011;38032;53.326;6.472;2023-10-09T12:31:49;14.02;;;4.68;;
52015;SDS011;38032;53.326;6.472;2023-10-09T12:34:23;10.43;;;4.88;;
52015;SDS011;38032;53.326;6.472;2023-10-09T12:36:53;15.38;;;4.60;;
52015;SDS011;38032;53.326;6.472;2023-10-09T12:39:20;12.15;;;4.40;;
52015;SDS011;38032;53.326;6.472;2023-10-09T12:41:47;13.15;;;4.03;;
52015;SDS011;38032;53.326;6.472;2023-10-09T12:44:14;11.48;;;3.90;;
52015;SDS011;38032;53.326;6.472;2023-10-09T12:46:41;15.32;;;4.32;;
52015;SDS011;38032;53.326;6.472;2023-10-09T12:49:07;8.48;;;4.05;;
52015;SDS011;38032;53.326;6.472;2023-10-09T12:51:34;10.43;;;3.88;;
52015;SDS011;38032;53.326;6.472;2023-10-09T12:53:59;9.13;;;3.85;;
52015;SDS011;38032;53.326;6.472;2023-10-09T12:56:27;8.40;;;3.80;;
52015;SDS011;38032;53.326;6.472;2023-10-09T12:59:02;11.43;;;4.20;;
52015;SDS011;38032;53.326;6.472;2023-10-09T13:01:30;8.93;;;4.10;;
52015;SDS011;38032;53.326;6.472;2023-10-09T13:03:58;9.48;;;3.80;;
52015;SDS011;38032;53.326;6.472;2023-10-09T13:06:26;11.60;;;3.65;;
52015;SDS011;38032;53.326;6.472;2023-10-09T13:08:52;11.82;;;3.88;;
52015;SDS011;38032;53.326;6.472;2023-10-09T13:11:21;11.25;;;3.80;;
52015;SDS011;38032;53.326;6.472;2023-10-09T13:13:47;8.25;;;3.80;;
52015;SDS011;38032;53.326;6.472;2023-10-09T13:16:16;12.73;;;3.92;;
52015;SDS011;38032;53.326;6.472;2023-10-09T13:18:48;12.90;;;4.50;;
52015;SDS011;38032;53.326;6.472;2023-10-09T13:21:16;12.82;;;3.65;;
52015;SDS011;38032;53.326;6.472;2023-10-09T13:23:43;11.27;;;3.38;;
52015;SDS011;38032;53.326;6.472;2023-10-09T13:26:12;10.60;;;3.30;;
52015;SDS011;38032;53.326;6.472;2023-10-09T13:28:49;9.18;;;3.17;;
52015;SDS011;38032;53.326;6.472;2023-10-09T13:31:17;7.35;;;2.80;;
52015;SDS011;38032;53.326;6.472;2023-10-09T13:33:44;9.98;;;3.00;;
52015;SDS011;38032;53.326;6.472;2023-10-09T13:36:10;7.97;;;3.00;;
52015;SDS011;38032;53.326;6.472;2023-10-09T13:38:44;6.93;;;2.95;;
52015;SDS011;38032;53.326;6.472;2023-10-09T13:41:11;9.80;;;3.17;;
52015;SDS011;38032;53.326;6.472;2023-10-09T13:43:39;8.15;;;3.10;;
52015;SDS011;38032;53.326;6.472;2023-10-09T13:46:06;6.40;;;2.78;;
52015;SDS011;38032;53.326;6.472;2023-10-09T13:48:34;8.90;;;3.28;;
52015;SDS011;38032;53.326;6.472;2023-10-09T13:51:04;7.82;;;2.88;;
52015;SDS011;38032;53.326;6.472;2023-10-09T13:53:33;8.00;;;2.60;;
52015;SDS011;38032;53.326;6.472;2023-10-09T13:56:01;9.57;;;3.22;;
52015;SDS011;38032;53.326;6.472;2023-10-09T13:58:28;8.90;;;2.60;;
52015;SDS011;38032;53.326;6.472;2023-10-09T14:00:56;7.05;;;2.90;;
52015;SDS011;38032;53.326;6.472;2023-10-09T14:03:22;5.30;;;2.60;;
52015;SDS011;38032;53.326;6.472;2023-10-09T14:05:49;7.22;;;2.53;;
52015;SDS011;38032;53.326;6.472;2023-10-09T14:08:22;5.88;;;2.50;;
52015;SDS011;38032;53.326;6.472;2023-10-09T14:10:48;12.00;;;3.67;;
52015;SDS011;38032;53.326;6.472;2023-10-09T14:13:15;9.35;;;3.08;;
52015;SDS011;38032;53.326;6.472;2023-10-09T14:15:43;7.97;;;2.67;;
52015;SDS011;38032;53.326;6.472;2023-10-09T14:18:11;9.35;;;2.88;;
52015;SDS011;38032;53.326;6.472;2023-10-09T14:20:37;10.18;;;2.58;;
52015;SDS011;38032;53.326;6.472;2023-10-09T14:23:06;10.00;;;2.78;;
52015;SDS011;38032;53.326;6.472;2023-10-09T14:25:34;6.32;;;2.47;;
52015;SDS011;38032;53.326;6.472;2023-10-09T14:28:04;5.05;;;2.33;;
52015;SDS011;38032;53.326;6.472;2023-10-09T14:30:33;8.45;;;2.33;;
52015;SDS011;38032;53.326;6.472;2023-10-09T14:33:08;6.85;;;2.00;;
52015;SDS011;38032;53.326;6.472;2023-10-09T14:35:44;5.60;;;2.13;;
52015;SDS011;38032;53.326;6.472;2023-10-09T14:38:10;5.80;;;2.10;;
52015;SDS011;38032;53.326;6.472;2023-10-09T14:40:40;6.88;;;1.98;;
52015;SDS011;38032;53.326;6.472;2023-10-09T14:43:07;6.20;;;1.95;;
52015;SDS011;38032;53.326;6.472;2023-10-09T14:45:44;4.32;;;2.13;;
52015;SDS011;38032;53.326;6.472;2023-10-09T14:48:14;6.80;;;1.98;;
52015;SDS011;38032;53.326;6.472;2023-10-09T14:50:47;6.30;;;2.10;;
52015;SDS011;38032;53.326;6.472;2023-10-09T14:53:14;8.80;;;2.20;;
52015;SDS011;38032;53.326;6.472;2023-10-09T14:55:42;5.50;;;2.10;;
52015;SDS011;38032;53.326;6.472;2023-10-09T14:58:10;7.15;;;2.15;;
52015;SDS011;38032;53.326;6.472;2023-10-09T15:00:37;7.65;;;2.30;;
52015;SDS011;38032;53.326;6.472;2023-10-09T15:03:11;8.82;;;2.40;;
52015;SDS011;38032;53.326;6.472;2023-10-09T15:05:41;5.80;;;2.03;;
52015;SDS011;38032;53.326;6.472;2023-10-09T15:08:07;8.30;;;2.28;;
52015;SDS011;38032;53.326;6.472;2023-10-09T15:10:48;5.20;;;2.42;;
52015;SDS011;38032;53.326;6.472;2023-10-09T15:13:17;5.53;;;1.90;;
52015;SDS011;38032;53.326;6.472;2023-10-09T15:15:43;9.00;;;2.30;;
52015;SDS011;38032;53.326;6.472;2023-10-09T15:18:11;6.07;;;2.75;;
52015;SDS011;38032;53.326;6.472;2023-10-09T15:20:37;4.93;;;2.05;;
52015;SDS011;38032;53.326;6.472;2023-10-09T15:23:05;8.68;;;2.30;;
52015;SDS011;38032;53.326;6.472;2023-10-09T15:25:32;6.47;;;2.28;;
52015;SDS011;38032;53.326;6.472;2023-10-09T15:27:59;9.13;;;2.72;;
52015;SDS011;38032;53.326;6.472;2023-10-09T15:30:28;5.43;;;2.50;;
52015;SDS011;38032;53.326;6.472;2023-10-09T15:32:57;7.28;;;2.30;;
52015;SDS011;38032;53.326;6.472;2023-10-09T15:35:23;9.48;;;2.47;;
52015;SDS011;38032;53.326;6.472;2023-10-09T15:37:49;7.13;;;2.00;;
52015;SDS011;38032;53.326;6.472;2023-10-09T15:40:18;7.70;;;2.05;;
52015;SDS011;38032;53.326;6.472;2023-10-09T15:42:49;5.43;;;1.95;;
52015;SDS011;38032;53.326;6.472;2023-10-09T15:45:16;6.30;;;2.13;;
52015;SDS011;38032;53.326;6.472;2023-10-09T15:47:43;5.95;;;2.30;;
52015;SDS011;38032;53.326;6.472;2023-10-09T15:50:10;6.80;;;2.10;;